Time;durP1;ratioP1;P1;durP2;ratioP2;P2;SDS_P1;SDS_P2;PMS_P1;PMS_P2;Temp;Humidity;BMP_temperature;BMP_pressure;BME280_temperature;BME280_humidity;BME280_pressure;Samples;Min_cycle;Max_cycle;Signal;HPM_P1;HPM_P2
2023/06/07 00:01:55;;;;;;;17.33;11.63;;;;;;;11.47;100.00;102070.91;5031017;28;20044;-50
2023/06/07 00:04:21;;;;;;;19.33;12.13;;;;;;;11.68;100.00;102102.16;5033260;28;20034;-53
2023/06/07 00:06:47;;;;;;;20.50;10.82;;;;;;;11.59;100.00;102092.66;5031419;28;20045;-50
2023/06/07 00:09:12;;;;;;;15.50;11.55;;;;;;;11.38;100.00;102063.16;5032093;28;20037;-49
2023/06/07 00:11:38;;;;;;;17.02;11.35;;;;;;;11.65;100.00;102107.50;4999374;28;20040;-50
2023/06/07 00:14:05;;;;;;;18.98;11.20;;;;;;;11.63;100.00;102107.53;5017594;28;20502;-54
2023/06/07 00:16:32;;;;;;;15.88;11.38;;;;;;;11.60;100.00;102101.44;5011884;28;20176;-53
2023/06/07 00:18:58;;;;;;;18.20;11.65;;;;;;;10.89;100.00;101987.47;5001305;28;20375;-49
2023/06/07 00:21:27;;;;;;;17.35;10.75;;;;;;;11.18;100.00;102031.81;4990919;28;20042;-55
2023/06/07 00:23:53;;;;;;;16.65;11.38;;;;;;;11.52;100.00;102101.56;5012828;28;20434;-50
2023/06/07 00:26:18;;;;;;;17.42;10.93;;;;;;;11.11;100.00;102038.09;5011506;28;20128;-51
2023/06/07 00:28:43;;;;;;;20.45;11.63;;;;;;;11.41;100.00;102086.81;5013247;28;20033;-50
2023/06/07 00:31:09;;;;;;;15.60;11.30;;;;;;;11.47;100.00;102103.38;5013390;28;20044;-50
2023/06/07 00:33:34;;;;;;;17.35;10.88;;;;;;;10.97;100.00;102030.41;5012239;28;20041;-51
2023/06/07 00:35:59;;;;;;;17.50;10.88;;;;;;;11.03;100.00;102039.97;5012253;28;20088;-53
2023/06/07 00:38:25;;;;;;;16.65;11.52;;;;;;;11.36;100.00;102104.47;5012728;28;20033;-54
2023/06/07 00:40:51;;;;;;;19.67;11.20;;;;;;;11.28;100.00;102096.69;5012269;28;20096;-51
2023/06/07 00:43:19;;;;;;;14.55;10.82;;;;;;;11.30;100.00;102108.94;4972746;28;20371;-53
2023/06/07 00:45:44;;;;;;;19.02;11.98;;;;;;;11.26;100.00;102102.00;5001232;28;20661;-49
2023/06/07 00:48:10;;;;;;;20.33;11.50;;;;;;;11.25;100.00;102105.50;5012559;28;20121;-49
2023/06/07 00:50:35;;;;;;;19.95;12.48;;;;;;;11.22;100.00;102102.91;5011262;28;20504;-53
2023/06/07 00:53:02;;;;;;;16.42;11.68;;;;;;;11.23;100.00;102103.78;5012451;28;20041;-49
2023/06/07 00:55:27;;;;;;;14.32;11.80;;;;;;;11.11;100.00;102101.34;5010317;28;20030;-52
2023/06/07 00:57:53;;;;;;;17.23;11.95;;;;;;;11.15;100.00;102110.91;5011685;28;20084;-51
2023/06/07 01:00:20;;;;;;;15.80;11.45;;;;;;;10.71;100.00;102030.75;5006299;28;20448;-52
2023/06/07 01:02:46;;;;;;;18.27;11.10;;;;;;;10.84;100.00;102057.81;4994809;28;20034;-50
2023/06/07 01:05:12;;;;;;;14.80;11.63;;;;;;;10.72;100.00;102037.78;5011330;28;20076;-51
2023/06/07 01:07:38;;;;;;;19.20;12.18;;;;;;;11.02;100.00;102093.56;5012110;28;20125;-51
2023/06/07 01:10:05;;;;;;;17.95;11.10;;;;;;;10.99;100.00;102093.59;5012518;28;20120;-52
2023/06/07 01:12:34;;;;;;;17.92;11.98;;;;;;;10.68;100.00;102043.97;5015902;28;20042;-48
2023/06/07 01:14:59;;;;;;;17.60;12.20;;;;;;;11.04;100.00;102111.09;5050206;28;20036;-51
2023/06/07 01:17:26;;;;;;;22.02;11.98;;;;;;;11.03;100.00;102105.84;5048472;28;20029;-49
2023/06/07 01:19:53;;;;;;;20.42;12.10;;;;;;;11.03;100.00;102103.22;5030795;28;20583;-49
2023/06/07 01:22:25;;;;;;;18.83;11.82;;;;;;;11.05;100.00;102102.31;5031414;28;20042;-51
2023/06/07 01:24:52;;;;;;;16.95;11.50;;;;;;;11.07;100.00;102099.63;5031147;28;20488;-53
2023/06/07 01:27:21;;;;;;;16.40;12.35;;;;;;;11.06;100.00;102108.44;5050757;28;20128;-51
2023/06/07 01:29:48;;;;;;;19.95;12.20;;;;;;;10.71;100.00;102046.56;5033243;28;20037;-49
2023/06/07 01:32:14;;;;;;;24.38;13.15;;;;;;;11.05;100.00;102104.06;5050514;28;20033;-51
2023/06/07 01:34:39;;;;;;;16.38;12.07;;;;;;;11.03;100.00;102104.06;5046494;28;20107;-53
2023/06/07 01:37:05;;;;;;;19.48;11.57;;;;;;;11.02;100.00;102097.06;5048762;28;20120;-50
2023/06/07 01:39:32;;;;;;;17.05;11.75;;;;;;;10.79;100.00;102066.66;5051495;28;20041;-50
2023/06/07 01:41:58;;;;;;;20.38;12.90;;;;;;;10.61;100.00;102039.69;5049577;28;20455;-49
2023/06/07 01:44:25;;;;;;;15.75;10.77;;;;;;;10.49;100.00;102018.78;5033819;28;20448;-51
2023/06/07 01:46:50;;;;;;;21.92;12.95;;;;;;;10.65;100.00;102037.91;5032969;28;20472;-49
2023/06/07 01:49:21;;;;;;;18.98;11.95;;;;;;;10.86;100.00;102078.88;5050482;28;20087;-51
2023/06/07 01:51:47;;;;;;;17.25;12.48;;;;;;;10.93;100.00;102098.94;5050121;28;20094;-48
2023/06/07 01:54:14;;;;;;;19.33;11.85;;;;;;;10.68;100.00;102058.94;5051981;28;20037;-51
2023/06/07 01:57:22;;;;;;;19.67;12.43;;;;;;;10.89;100.00;102103.38;5050003;28;20052;-51
2023/06/07 02:00:08;;;;;;;20.58;12.35;;;;;;;10.46;100.00;102024.09;5020713;28;20156;-50
2023/06/07 02:02:52;;;;;;;16.95;12.00;;;;;;;10.83;100.00;102098.19;5031754;28;20029;-48
2023/06/07 02:05:25;;;;;;;15.95;11.43;;;;;;;10.83;100.00;102097.34;5029775;28;20037;-52
2023/06/07 02:07:53;;;;;;;17.42;11.55;;;;;;;10.42;100.00;102017.13;5049575;28;20033;-51
2023/06/07 02:10:25;;;;;;;20.75;11.75;;;;;;;10.86;100.00;102095.53;5051595;28;20029;-52
2023/06/07 02:12:53;;;;;;;17.63;11.63;;;;;;;10.59;100.00;102053.78;5033388;28;20481;-54
2023/06/07 02:15:21;;;;;;;15.07;11.13;;;;;;;10.57;100.00;102029.22;5049869;28;20028;-50
2023/06/07 02:17:58;;;;;;;17.13;10.45;;;;;;;10.85;100.00;102079.75;4994455;28;20030;-50
2023/06/07 02:20:27;;;;;;;17.85;11.95;;;;;;;10.89;100.00;102078.81;5016019;28;20495;-49
2023/06/07 02:22:53;;;;;;;18.88;11.25;;;;;;;9.83;100.00;101902.13;5051419;28;20049;-49
2023/06/07 02:25:18;;;;;;;17.02;11.05;;;;;;;10.56;100.00;102033.63;5050355;28;20036;-52
2023/06/07 02:27:44;;;;;;;19.42;10.20;;;;;;;11.00;100.00;102075.16;5051640;28;20029;-50
2023/06/07 02:30:09;;;;;;;20.20;10.73;;;;;;;11.08;100.00;102081.19;5051821;28;20476;-50
2023/06/07 02:32:35;;;;;;;17.40;10.73;;;;;;;11.03;100.00;102075.06;5051427;28;20036;-49
2023/06/07 02:35:01;;;;;;;19.38;10.68;;;;;;;11.05;100.00;102073.31;5052594;28;20111;-50
2023/06/07 02:37:28;;;;;;;18.98;9.80;;;;;;;10.79;100.00;102016.63;5053760;28;20481;-51
2023/06/07 02:39:53;;;;;;;20.00;11.23;;;;;;;11.20;100.00;102088.03;5055093;28;20033;-50
2023/06/07 02:42:18;;;;;;;16.40;10.65;;;;;;;11.16;100.00;102070.50;5054955;28;20391;-54
2023/06/07 02:44:44;;;;;;;19.23;11.23;;;;;;;11.26;100.00;102082.66;5055081;28;20469;-53
2023/06/07 02:47:10;;;;;;;18.17;10.20;;;;;;;11.29;100.00;102072.06;5053805;28;20033;-51
2023/06/07 02:49:35;;;;;;;17.60;10.30;;;;;;;11.28;100.00;102070.31;5055100;28;20037;-53
2023/06/07 02:52:00;;;;;;;18.27;10.45;;;;;;;11.32;100.00;102078.16;5054653;28;20108;-53
2023/06/07 02:54:26;;;;;;;16.33;10.50;;;;;;;11.27;100.00;102068.56;5054650;28;20607;-48
2023/06/07 02:56:51;;;;;;;19.40;9.93;;;;;;;10.98;100.00;102007.53;5053709;28;20072;-50
2023/06/07 02:59:17;;;;;;;17.98;10.50;;;;;;;10.93;100.00;102004.13;5054869;28;20112;-50
2023/06/07 03:01:43;;;;;;;18.52;10.38;;;;;;;11.00;100.00;102021.59;5053918;28;20091;-50
2023/06/07 03:04:08;;;;;;;18.73;10.38;;;;;;;11.17;100.00;102044.16;5036856;28;20495;-49
2023/06/07 03:06:34;;;;;;;17.63;10.50;;;;;;;11.39;100.00;102080.69;5053208;28;20041;-52
2023/06/07 03:09:00;;;;;;;15.15;9.43;;;;;;;11.16;100.00;102039.75;5053958;28;20029;-51
2023/06/07 03:11:25;;;;;;;16.55;10.00;;;;;;;11.40;100.00;102080.69;5054618;28;20082;-49
2023/06/07 03:13:50;;;;;;;18.38;9.52;;;;;;;11.30;100.00;102064.13;5054373;28;20080;-49
2023/06/07 03:16:16;;;;;;;16.70;10.05;;;;;;;11.39;100.00;102067.50;5034484;28;20136;-49
2023/06/07 03:18:41;;;;;;;14.18;9.30;;;;;;;11.25;100.00;102049.28;5036377;28;20033;-54
2023/06/07 03:21:08;;;;;;;15.00;9.77;;;;;;;11.27;100.00;102058.03;5035633;28;20039;-51
2023/06/07 03:23:33;;;;;;;23.05;10.27;;;;;;;11.34;100.00;102075.50;5054030;28;20037;-51
2023/06/07 03:25:58;;;;;;;19.38;9.82;;;;;;;11.28;100.00;102065.94;5052820;28;20056;-49
2023/06/07 03:28:24;;;;;;;18.48;10.63;;;;;;;11.44;100.00;102070.97;5054164;28;20044;-49
2023/06/07 03:30:49;;;;;;;13.85;9.88;;;;;;;11.42;100.00;102080.63;5054161;28;20047;-50
2023/06/07 03:33:15;;;;;;;16.77;9.38;;;;;;;11.01;100.00;102011.00;5054182;28;20033;-48
2023/06/07 03:35:41;;;;;;;25.50;10.60;;;;;;;11.40;100.00;102078.03;5053527;28;20608;-51
2023/06/07 03:38:06;;;;;;;17.15;9.88;;;;;;;11.00;100.00;102011.91;5031875;28;20033;-51
2023/06/07 03:40:32;;;;;;;19.23;10.18;;;;;;;11.37;100.00;102075.44;5029700;28;20040;-50
2023/06/07 03:42:59;;;;;;;13.50;9.65;;;;;;;11.26;100.00;102062.44;5014097;28;20030;-50
2023/06/07 03:45:24;;;;;;;16.02;10.50;;;;;;;11.30;100.00;102053.59;4996112;28;20061;-51
2023/06/07 03:47:50;;;;;;;16.35;10.32;;;;;;;11.40;100.00;102080.69;5047192;28;20458;-53
2023/06/07 03:50:15;;;;;;;15.00;9.82;;;;;;;11.08;100.00;102017.06;5053736;28;20037;-52
2023/06/07 03:52:40;;;;;;;24.02;10.40;;;;;;;11.44;100.00;102077.06;5035987;28;20052;-53
2023/06/07 03:55:07;;;;;;;17.55;10.55;;;;;;;10.71;100.00;101954.41;5052120;28;20045;-50
2023/06/07 03:57:32;;;;;;;19.30;10.02;;;;;;;11.41;100.00;102066.59;5050840;28;20385;-49
2023/06/07 03:59:57;;;;;;;18.15;10.10;;;;;;;11.49;100.00;102079.66;5052307;28;20079;-50
2023/06/07 04:02:23;;;;;;;24.27;11.70;;;;;;;11.52;100.00;102072.56;5050719;28;20044;-52
2023/06/07 04:04:49;;;;;;;18.75;9.30;;;;;;;11.44;100.00;102077.06;5053297;28;20044;-51
2023/06/07 04:07:16;;;;;;;16.05;8.93;;;;;;;11.45;100.00;102073.56;5053693;28;20037;-51
2023/06/07 04:09:47;;;;;;;17.02;10.75;;;;;;;11.11;100.00;102017.88;5034502;28;20061;-47
2023/06/07 04:12:13;;;;;;;21.17;9.35;;;;;;;10.81;100.00;101964.78;5026310;28;20112;-50
2023/06/07 04:14:38;;;;;;;14.32;9.10;;;;;;;11.17;100.00;102022.19;5035152;28;20095;-49
2023/06/07 04:17:04;;;;;;;18.02;9.65;;;;;;;11.57;100.00;102076.00;5053189;28;20061;-49
2023/06/07 04:19:29;;;;;;;18.30;10.25;;;;;;;11.58;100.00;102079.50;5052993;28;20662;-50
2023/06/07 04:21:54;;;;;;;15.20;8.98;;;;;;;11.61;100.00;102079.44;5051773;28;20094;-49
2023/06/07 04:24:20;;;;;;;15.95;8.98;;;;;;;11.29;100.00;102004.38;5053212;28;20037;-51
2023/06/07 04:26:48;;;;;;;16.65;8.40;;;;;;;11.71;100.00;102079.28;5053141;28;20025;-51
2023/06/07 04:29:14;;;;;;;16.13;9.13;;;;;;;11.66;100.00;102083.75;5053008;28;20036;-49
2023/06/07 04:31:41;;;;;;;14.90;8.63;;;;;;;11.70;100.00;102079.34;5051379;28;20480;-50
2023/06/07 04:34:09;;;;;;;18.00;9.15;;;;;;;11.84;100.00;102086.09;5035203;28;20108;-52
2023/06/07 04:36:37;;;;;;;14.23;8.40;;;;;;;11.85;100.00;102087.81;5052948;28;20126;-50
2023/06/07 04:39:05;;;;;;;15.25;8.50;;;;;;;11.62;100.00;102047.75;5051575;28;20037;-53
2023/06/07 04:41:32;;;;;;;13.23;8.40;;;;;;;11.54;100.00;102022.44;5051559;28;20098;-49
2023/06/07 04:44:00;;;;;;;19.60;8.70;;;;;;;11.82;100.00;102079.13;5051468;28;20036;-48
2023/06/07 04:46:26;;;;;;;15.30;8.55;;;;;;;11.93;100.00;102084.19;5035205;28;20037;-49
2023/06/07 04:48:52;;;;;;;15.75;7.75;;;;;;;11.66;100.00;102046.81;5050939;28;20029;-51
2023/06/07 04:51:20;;;;;;;16.35;7.93;;;;;;;11.56;100.00;102028.53;5049763;28;20036;-49
2023/06/07 04:53:49;;;;;;;17.50;8.20;;;;;;;12.04;100.00;102090.13;5052571;28;20079;-49
2023/06/07 04:56:14;;;;;;;12.90;7.35;;;;;;;12.07;100.00;102104.16;5052403;28;20044;-51
2023/06/07 04:58:40;;;;;;;13.98;6.53;;;;;;;12.16;100.00;102103.09;5021386;28;20030;-52
2023/06/07 05:01:09;;;;;;;15.45;6.30;;;;;;;11.83;100.00;102052.69;5022106;28;20058;-49
2023/06/07 05:03:37;;;;;;;12.45;6.90;;;;;;;12.11;100.00;102104.97;5051809;28;20044;-50
2023/06/07 05:06:04;;;;;;;16.10;6.55;;;;;;;12.01;100.00;102072.59;5033347;28;20037;-49
2023/06/07 05:08:29;;;;;;;15.57;6.35;;;;;;;12.27;100.00;102102.00;5034869;28;20476;-50
2023/06/07 05:10:55;;;;;;;17.65;7.50;;;;;;;12.33;100.00;102098.38;5050661;28;20040;-49
2023/06/07 05:13:20;;;;;;;14.02;6.93;;;;;;;12.38;100.00;102085.94;5034377;28;20053;-50
2023/06/07 05:15:45;;;;;;;13.30;6.22;;;;;;;12.43;100.00;102101.72;5037245;28;20044;-49
2023/06/07 05:18:12;;;;;;;11.07;5.60;;;;;;;12.39;100.00;102093.84;5030737;28;20041;-52
2023/06/07 05:20:37;;;;;;;8.88;6.05;;;;;;;12.38;100.00;102089.47;5031863;28;20117;-49
2023/06/07 05:23:03;;;;;;;10.98;6.13;;;;;;;12.01;100.00;102034.78;5048697;28;20156;-52
2023/06/07 05:25:29;;;;;;;12.77;6.15;;;;;;;12.42;100.00;102114.03;5017189;28;20046;-49
2023/06/07 05:27:54;;;;;;;14.68;5.50;;;;;;;12.14;100.00;102052.13;5045372;28;20037;-51
2023/06/07 05:30:20;;;;;;;11.63;5.20;;;;;;;12.15;100.00;102056.50;5023679;28;20111;-53
2023/06/07 05:32:48;;;;;;;12.13;5.60;;;;;;;12.46;100.00;102099.88;5041656;28;20040;-51
2023/06/07 05:35:13;;;;;;;12.95;5.32;;;;;;;12.00;100.00;102007.50;5029097;28;20034;-53
2023/06/07 05:37:39;;;;;;;9.20;5.43;;;;;;;12.64;100.00;102115.34;5011195;28;20091;-51
2023/06/07 05:40:07;;;;;;;10.90;5.63;;;;;;;12.61;100.00;102112.75;4994763;28;20034;-52
2023/06/07 05:42:38;;;;;;;7.75;5.55;;;;;;;12.63;100.00;102110.09;5035408;28;20045;-48
2023/06/07 05:45:06;;;;;;;11.45;5.22;;;;;;;12.63;100.00;102108.34;5051495;28;20461;-49
2023/06/07 05:47:32;;;;;;;13.10;5.13;;;;;;;12.38;100.00;102063.06;5039563;28;20040;-51
2023/06/07 05:49:57;;;;;;;13.68;5.40;;;;;;;12.50;100.00;102084.81;5032016;28;20108;-51
2023/06/07 05:52:22;;;;;;;9.93;5.15;;;;;;;12.64;100.00;102107.41;5040291;28;20029;-49
2023/06/07 05:54:49;;;;;;;10.32;5.07;;;;;;;12.48;100.00;102079.59;5051757;28;20560;-51
2023/06/07 05:57:15;;;;;;;12.65;5.13;;;;;;;12.57;100.00;102100.53;5050654;28;20029;-51
2023/06/07 05:59:40;;;;;;;11.10;5.55;;;;;;;12.30;100.00;102058.81;5031715;28;20114;-51
2023/06/07 06:02:07;;;;;;;12.20;5.68;;;;;;;12.71;100.00;102105.50;5049772;28;20032;-51
2023/06/07 06:04:32;;;;;;;12.77;5.30;;;;;;;12.32;100.00;102051.75;5025850;28;20038;-50
2023/06/07 06:06:58;;;;;;;20.75;6.03;;;;;;;12.85;100.00;102106.97;5021028;28;20041;-50
2023/06/07 06:09:23;;;;;;;9.80;5.07;;;;;;;13.07;100.00;102111.78;5051892;28;20037;-50
2023/06/07 06:11:49;;;;;;;11.18;4.43;;;;;;;13.22;100.00;102122.91;5055703;28;20048;-48
2023/06/07 06:14:14;;;;;;;7.35;4.72;;;;;;;13.25;100.00;102112.25;5055826;28;20048;-51
2023/06/07 06:16:40;;;;;;;14.43;5.18;;;;;;;13.37;100.00;102114.59;5053203;28;20091;-51
2023/06/07 06:19:05;;;;;;;13.48;4.97;;;;;;;13.03;100.00;102054.59;5055409;28;20072;-52
2023/06/07 06:21:30;;;;;;;17.35;6.20;;;;;;;13.44;100.00;102113.56;5037665;28;20029;-51
2023/06/07 06:23:56;;;;;;;9.52;5.38;;;;;;;13.52;100.00;102129.25;5055419;28;20040;-48
2023/06/07 06:26:22;;;;;;;8.50;4.68;;;;;;;13.25;100.00;102048.78;5053757;28;20280;-49
2023/06/07 06:28:48;;;;;;;12.38;5.05;;;;;;;13.56;100.00;102128.28;5035247;28;20044;-51
2023/06/07 06:31:13;;;;;;;12.73;5.25;;;;;;;13.62;100.00;102119.31;5045665;28;20033;-48
2023/06/07 06:33:38;;;;;;;10.05;4.72;;;;;;;13.12;100.00;102023.56;5034104;28;20503;-48
2023/06/07 06:36:04;;;;;;;10.13;4.78;;;;;;;13.61;100.00;102128.16;5034596;28;20041;-51
2023/06/07 06:38:29;;;;;;;14.27;5.28;;;;;;;13.72;100.00;102129.63;5050460;28;20037;-50
2023/06/07 06:40:55;;;;;;;10.73;5.07;;;;;;;13.82;100.00;102128.50;5052947;28;20508;-48
2023/06/07 06:43:20;;;;;;;11.15;4.75;;;;;;;13.83;100.00;102098.50;5015545;28;20049;-52
2023/06/07 06:45:46;;;;;;;10.05;4.53;;;;;;;14.11;100.00;102077.44;5032909;28;20079;-55
2023/06/07 06:48:12;;;;;;;11.35;5.20;;;;;;;14.26;100.00;102092.03;5012627;28;20396;-51
2023/06/07 06:50:37;;;;;;;12.48;4.88;;;;;;;14.66;100.00;102145.66;5032908;28;20091;-52
2023/06/07 06:53:02;;;;;;;11.52;4.82;;;;;;;14.66;100.00;102113.84;5033496;28;20037;-51
2023/06/07 06:55:29;;;;;;;8.43;4.63;;;;;;;14.59;100.00;102155.56;5033241;28;20138;-50
2023/06/07 06:57:55;;;;;;;7.45;4.45;;;;;;;14.39;100.00;102088.19;5042459;28;20041;-52
2023/06/07 07:00:20;;;;;;;11.13;4.82;;;;;;;14.80;100.00;102137.34;5052323;28;20044;-52
2023/06/07 07:02:46;;;;;;;11.90;4.95;;;;;;;14.71;100.00;102142.91;5053135;28;20396;-53
2023/06/07 07:05:11;;;;;;;11.23;4.63;;;;;;;14.61;100.00;102091.94;5053018;28;20025;-51
2023/06/07 07:07:37;;;;;;;11.60;4.88;;;;;;;14.90;100.00;102144.97;5050713;28;20098;-52
2023/06/07 07:10:03;;;;;;;11.80;5.65;;;;;;;14.87;100.00;102154.78;5052900;28;20124;-48
2023/06/07 07:12:29;;;;;;;11.57;4.45;;;;;;;14.86;100.00;102153.03;5034379;28;20047;-50
2023/06/07 07:14:54;;;;;;;9.35;4.72;;;;;;;15.08;100.00;102155.03;5053385;28;20029;-52
2023/06/07 07:17:20;;;;;;;11.55;5.15;;;;;;;14.95;100.00;102107.69;5040744;28;20068;-50
2023/06/07 07:19:46;;;;;;;10.18;4.50;;;;;;;15.02;100.00;102096.88;5051828;28;20061;-52
2023/06/07 07:22:11;;;;;;;9.32;5.10;;;;;;;15.41;100.00;102154.91;5050643;28;20033;-52
2023/06/07 07:24:36;;;;;;;10.57;4.68;;;;;;;15.34;100.00;102161.31;5049103;28;20049;-50
2023/06/07 07:27:02;;;;;;;10.05;5.13;;;;;;;14.90;100.00;102104.31;5050438;28;20041;-50
2023/06/07 07:29:27;;;;;;;13.10;5.63;;;;;;;15.39;100.00;102125.75;5052804;28;20044;-51
2023/06/07 07:31:53;;;;;;;11.25;4.07;;;;;;;15.41;100.00;102110.63;5051793;28;20037;-53
2023/06/07 07:34:18;;;;;;;12.82;4.88;;;;;;;15.09;100.00;102095.75;5031751;28;20127;-49
2023/06/07 07:36:44;;;;;;;11.23;4.80;;;;;;;15.23;100.00;102107.72;5033816;28;20059;-55
2023/06/07 07:39:17;;;;;;;10.80;4.90;;;;;;;15.20;100.00;102095.44;5050248;28;20252;-50
2023/06/07 07:41:43;;;;;;;10.63;5.18;;;;;;;15.17;100.00;102093.75;5050957;28;20025;-53
2023/06/07 07:44:08;;;;;;;11.10;4.68;;;;;;;15.86;100.00;102149.91;5051896;28;20032;-51
2023/06/07 07:46:35;;;;;;;9.43;4.88;;;;;;;16.17;100.00;102159.41;5050652;28;20473;-53
2023/06/07 07:49:00;;;;;;;9.43;4.35;;;;;;;15.88;100.00;102100.28;5045875;28;20041;-55
2023/06/07 07:51:26;;;;;;;16.15;5.13;;;;;;;15.73;100.00;102114.94;5014534;28;20048;-49
2023/06/07 07:53:52;;;;;;;10.85;4.85;;;;;;;16.17;100.00;102169.22;5032086;28;20037;-50
2023/06/07 07:56:18;;;;;;;13.98;4.78;;;;;;;15.98;100.00;102166.28;5033394;28;20047;-55
2023/06/07 07:58:44;;;;;;;9.38;4.60;;;;;;;16.57;100.00;102139.44;5051066;28;20043;-56
2023/06/07 08:01:10;;;;;;;9.43;4.18;;;;;;;16.43;100.00;102096.53;5051610;28;20060;-52
2023/06/07 08:03:36;;;;;;;9.90;4.60;;;;;;;17.38;100.00;102154.03;5047168;28;20476;-50
2023/06/07 08:06:01;;;;;;;10.82;4.55;;;;;;;17.77;100.00;102167.56;5049977;28;20033;-54
2023/06/07 08:08:27;;;;;;;11.55;4.95;;;;;;;17.58;100.00;102084.03;5001204;28;20065;-52
2023/06/07 08:10:53;;;;;;;11.95;4.88;;;;;;;18.47;100.00;102104.97;5013743;28;20100;-55
2023/06/07 08:13:18;;;;;;;10.25;4.60;;;;;;;19.07;100.00;102140.44;5027298;28;20577;-53
2023/06/07 08:15:46;;;;;;;13.18;4.65;;;;;;;18.76;100.00;102175.69;5044526;28;20041;-55
2023/06/07 08:18:11;;;;;;;11.20;4.40;;;;;;;18.30;100.00;102167.97;5051566;28;20036;-51
2023/06/07 08:20:37;;;;;;;11.48;4.13;;;;;;;18.76;100.00;102167.69;5050740;28;20082;-56
2023/06/07 08:23:02;;;;;;;9.77;3.92;;;;;;;19.08;100.00;102119.03;5028704;28;20033;-57
2023/06/07 08:25:28;;;;;;;11.75;4.85;;;;;;;19.14;100.00;102135.69;5020161;28;20046;-55
2023/06/07 08:27:53;;;;;;;12.32;4.50;;;;;;;19.20;100.00;102164.78;5012043;28;20724;-57
2023/06/07 08:30:18;;;;;;;11.45;4.22;;;;;;;19.04;100.00;102168.16;5011643;28;20317;-52
2023/06/07 08:32:45;;;;;;;8.32;4.80;;;;;;;19.30;100.00;102158.03;5025750;28;20051;-53
2023/06/07 08:35:11;;;;;;;11.15;5.03;;;;;;;19.01;100.00;102170.09;5050620;28;20032;-54
2023/06/07 08:37:36;;;;;;;10.48;4.50;;;;;;;19.41;100.00;102145.94;5051292;28;20036;-55
2023/06/07 08:40:05;;;;;;;9.18;4.28;;;;;;;19.37;100.00;102165.69;5037951;28;20069;-54
2023/06/07 08:42:31;;;;;;;13.68;4.28;;;;;;;20.07;100.00;102165.78;5016488;28;20029;-55
2023/06/07 08:44:56;;;;;;;10.50;5.03;;;;;;;19.43;100.00;102164.56;5045378;28;20514;-54
2023/06/07 08:47:23;;;;;;;11.82;4.30;;;;;;;19.69;100.00;102161.50;5049265;28;20067;-57
2023/06/07 08:49:54;;;;;;;7.97;4.57;;;;;;;19.56;100.00;102139.84;5029013;28;20479;-56
2023/06/07 08:52:19;;;;;;;;;;;;;;;19.98;100.00;102165.38;5046288;28;20034;-55
2023/06/07 08:54:47;;;;;;;11.27;4.72;;;;;;;19.94;100.00;102167.34;5029856;28;20426;-54
2023/06/07 08:57:18;;;;;;;10.15;4.20;;;;;;;20.83;100.00;102161.78;5010384;28;20084;-56
2023/06/07 08:59:45;;;;;;;8.23;4.45;;;;;;;21.04;100.00;102178.50;5008937;28;20041;-51
2023/06/07 09:02:15;;;;;;;10.82;4.53;;;;;;;21.29;100.00;102166.38;5020174;28;20037;-54
2023/06/07 09:04:41;;;;;;;9.00;4.50;;;;;;;21.69;100.00;102183.69;5018508;28;20100;-53
2023/06/07 09:07:10;;;;;;;14.65;5.68;;;;;;;21.58;100.00;102175.41;5011616;28;20038;-55
2023/06/07 09:09:36;;;;;;;10.23;4.22;;;;;;;21.74;100.00;102170.06;5011652;28;20112;-57
2023/06/07 09:12:02;;;;;;;8.93;4.25;;;;;;;21.59;100.00;102162.91;5030441;28;20116;-51
2023/06/07 09:14:29;;;;;;;10.02;5.03;;;;;;;21.35;100.00;102124.97;5018959;28;20058;-51
2023/06/07 09:16:56;;;;;;;10.68;4.68;;;;;;;21.31;100.00;102177.84;5040712;28;20037;-55
2023/06/07 09:19:42;;;;;;;10.30;4.68;;;;;;;21.53;100.00;102131.97;5049253;28;20424;-51
2023/06/07 09:22:17;;;;;;;10.20;4.38;;;;;;;21.49;100.00;102161.69;5048264;28;20112;-52
2023/06/07 09:24:43;;;;;;;9.30;4.10;;;;;;;22.10;100.00;102185.81;5050844;28;20117;-50
2023/06/07 09:27:12;;;;;;;8.82;4.50;;;;;;;22.32;100.00;102178.22;5050814;28;20467;-52
2023/06/07 09:29:40;;;;;;;10.90;4.60;;;;;;;22.58;100.00;102122.97;5040017;28;20037;-50
2023/06/07 09:32:19;;;;;;;11.35;5.20;;;;;;;22.51;100.00;102132.34;5039324;28;20078;-52
2023/06/07 09:34:45;;;;;;;11.55;4.57;;;;;;;22.74;100.00;102172.94;5050498;28;20091;-54
2023/06/07 09:37:11;;;;;;;9.55;5.68;;;;;;;22.12;100.00;102176.75;5042940;28;20107;-54
2023/06/07 09:39:37;;;;;;;8.20;4.30;;;;;;;22.49;100.00;102159.28;5031580;28;20481;-54
2023/06/07 09:42:16;;;;;;;10.40;4.82;;;;;;;22.33;100.00;102111.06;5050616;28;20094;-56
2023/06/07 09:44:41;;;;;;;9.57;4.60;;;;;;;22.88;100.00;102124.59;5050634;28;20037;-54
2023/06/07 09:47:18;;;;;;;10.68;4.97;;;;;;;22.60;100.00;102115.69;5027609;28;20309;-53
2023/06/07 09:49:44;;;;;;;10.82;4.43;;;;;;;22.36;100.00;102123.41;5053825;28;20124;-51
2023/06/07 09:52:13;;;;;;;11.48;4.80;;;;;;;22.55;100.00;102145.50;5054349;28;20476;-50
2023/06/07 09:54:43;;;;;;;9.05;5.28;;;;;;;22.59;100.00;102116.66;5049818;28;20040;-52
2023/06/07 09:57:24;;;;;;;8.70;4.50;;;;;;;23.26;100.00;102178.56;5033545;28;20127;-49
2023/06/07 10:00:17;;;;;;;9.43;4.93;;;;;;;23.23;100.00;102165.34;5053911;28;20647;-52
2023/06/07 10:02:44;;;;;;;11.07;5.10;;;;;;;22.66;100.00;102156.44;5028777;28;20107;-56
2023/06/07 10:05:12;;;;;;;10.80;5.10;;;;;;;23.22;100.00;102160.94;5032084;28;20112;-52
2023/06/07 10:07:43;;;;;;;9.02;4.68;;;;;;;23.44;100.00;102099.47;5054619;28;20041;-55
2023/06/07 10:10:12;;;;;;;7.68;4.32;;;;;;;24.03;100.00;102162.69;5053205;28;20029;-55
2023/06/07 10:12:42;;;;;;;8.00;4.60;;;;;;;23.80;100.00;102155.31;5051158;28;20293;-56
2023/06/07 10:15:12;;;;;;;12.87;5.43;;;;;;;23.73;100.00;102137.84;5051080;28;20186;-54
2023/06/07 10:17:59;;;;;;;11.30;5.20;;;;;;;23.98;100.00;102172.03;5050114;28;20033;-55
2023/06/07 10:20:29;;;;;;;15.48;5.38;;;;;;;23.93;100.00;102161.56;5028754;28;20455;-53
2023/06/07 10:23:06;;;;;;;12.65;4.90;;;;;;;24.35;100.00;102127.34;4998056;28;20116;-55
2023/06/07 10:26:04;;;;;;;11.35;4.68;;;;;;;24.21;100.00;102175.88;5051863;28;20181;-56
2023/06/07 10:28:52;;;;;;;9.90;4.30;;;;;;;23.86;100.00;102140.59;5032383;28;20113;-57
2023/06/07 10:31:18;;;;;;;8.52;4.43;;;;;;;23.82;100.00;102107.66;5034820;28;20033;-58
2023/06/07 10:33:44;;;;;;;9.50;4.32;;;;;;;23.87;100.00;102110.91;5034529;28;20044;-55
2023/06/07 10:36:09;;;;;;;13.20;5.38;;;;;;;24.65;100.00;102157.50;5052047;28;20045;-55
2023/06/07 10:38:35;;;;;;;13.15;4.70;;;;;;;24.66;100.00;102091.94;5026715;28;20492;-56
2023/06/07 10:41:02;;;;;;;12.00;5.00;;;;;;;25.21;100.00;102141.84;5014060;28;20120;-55
2023/06/07 10:43:29;;;;;;;9.68;5.03;;;;;;;24.56;100.00;102109.69;5020459;28;20124;-55
2023/06/07 10:46:20;;;;;;;10.18;4.95;;;;;;;25.27;100.00;102152.16;5035238;28;20025;-55
2023/06/07 10:48:46;;;;;;;10.25;4.80;;;;;;;25.26;100.00;102107.31;5035547;28;20032;-53
2023/06/07 10:51:15;;;;;;;12.50;5.03;;;;;;;25.17;100.00;102149.28;5035337;28;20037;-53
2023/06/07 10:53:50;;;;;;;10.63;5.63;;;;;;;25.18;100.00;102164.47;5049135;28;20040;-53
2023/06/07 10:56:32;;;;;;;8.05;4.40;;;;;;;24.84;100.00;102141.78;5018945;28;20026;-54
2023/06/07 10:59:21;;;;;;;9.27;4.80;;;;;;;25.21;100.00;102136.44;5012043;28;20461;-55
2023/06/07 11:01:49;;;;;;;6.82;4.75;;;;;;;24.89;100.00;102087.59;5013361;28;20076;-52
2023/06/07 11:04:39;;;;;;;8.40;5.40;;;;;;;25.68;100.00;102141.91;5034916;28;20523;-57
2023/06/07 11:07:51;;;;;;;12.07;5.90;;;;;;;25.23;100.00;102124.56;5051336;28;20037;-53
2023/06/07 11:10:17;;;;;;;11.02;5.53;;;;;;;25.69;100.00;102136.38;5044071;28;20318;-52
2023/06/07 11:12:45;;;;;;;7.43;4.65;;;;;;;25.67;100.00;102124.84;5028036;28;20554;-55